Time;durP1;ratioP1;P1;durP2;ratioP2;P2;SDS_P1;SDS_P2;PMS_P1;PMS_P2;Temp;Humidity;BMP_temperature;BMP_pressure;BME280_temperature;BME280_humidity;BME280_pressure;Samples;Min_cycle;Max_cycle;Signal;HPM_P1;HPM_P2
2022/05/28 00:01:04;;;;;;;4.00;0.60;;;12.80;99.90;;;;;;5052972;28;20251;-61
2022/05/28 00:03:32;;;;;;;1.23;0.70;;;12.70;99.90;;;;;;5053960;28;20179;-60
2022/05/28 00:05:58;;;;;;;1.03;0.63;;;12.70;99.90;;;;;;5054145;28;20197;-60
2022/05/28 00:08:24;;;;;;;2.10;0.60;;;12.50;99.90;;;;;;5054397;28;20211;-60
2022/05/28 00:10:53;;;;;;;1.20;0.70;;;12.50;99.90;;;;;;5053731;28;20213;-60
2022/05/28 00:13:19;;;;;;;2.37;0.50;;;12.40;99.90;;;;;;5053823;28;20183;-60
2022/05/28 00:15:44;;;;;;;1.57;0.80;;;12.40;99.90;;;;;;5053506;28;20616;-59
2022/05/28 00:18:10;;;;;;;4.10;0.50;;;12.50;99.90;;;;;;5053801;28;20189;-60
2022/05/28 00:20:36;;;;;;;1.63;0.50;;;12.50;99.90;;;;;;5053127;28;20193;-60
2022/05/28 00:23:04;;;;;;;1.90;0.50;;;12.50;99.90;;;;;;5052064;28;20245;-60
2022/05/28 00:25:30;;;;;;;4.20;0.50;;;12.50;99.90;;;;;;5053413;28;20178;-60
2022/05/28 00:27:55;;;;;;;0.90;0.60;;;12.50;99.90;;;;;;5053334;28;20280;-60
2022/05/28 00:30:22;;;;;;;4.00;0.43;;;12.40;99.90;;;;;;5053517;28;20643;-60
2022/05/28 00:32:47;;;;;;;1.00;0.40;;;12.30;99.90;;;;;;5053014;28;20191;-60
2022/05/28 00:35:16;;;;;;;1.27;0.80;;;12.30;99.90;;;;;;5053022;28;20195;-60
2022/05/28 00:37:43;;;;;;;1.17;0.60;;;12.30;99.90;;;;;;5053162;28;20179;-60
2022/05/28 00:40:15;;;;;;;1.53;0.40;;;12.40;99.90;;;;;;5053375;28;20183;-60
2022/05/28 00:42:40;;;;;;;3.40;0.70;;;12.40;99.90;;;;;;5052748;28;20230;-60
2022/05/28 00:45:07;;;;;;;1.30;0.77;;;12.30;99.90;;;;;;5052920;28;20212;-60
2022/05/28 00:47:33;;;;;;;2.07;0.53;;;12.40;99.90;;;;;;5052718;28;20293;-60
2022/05/28 00:49:59;;;;;;;1.47;0.87;;;12.30;99.90;;;;;;5053212;28;20270;-60
2022/05/28 00:52:26;;;;;;;1.60;0.77;;;12.30;99.90;;;;;;5053287;28;20193;-60
2022/05/28 00:54:53;;;;;;;2.67;0.90;;;12.30;99.90;;;;;;5053105;28;20190;-60
2022/05/28 00:57:20;;;;;;;2.07;0.60;;;12.30;99.90;;;;;;5051180;28;20195;-60
2022/05/28 00:59:46;;;;;;;4.40;0.87;;;12.40;99.90;;;;;;5052613;28;20188;-61
2022/05/28 01:02:19;;;;;;;3.77;0.93;;;12.40;99.90;;;;;;5052896;28;20218;-61
2022/05/28 01:05:07;;;;;;;1.93;0.67;;;12.30;99.90;;;;;;5052869;28;20196;-62
2022/05/28 01:07:59;;;;;;;3.00;1.03;;;12.40;99.90;;;;;;5052083;28;20243;-59
2022/05/28 01:10:40;;;;;;;2.43;0.80;;;12.40;99.90;;;;;;5052213;28;20198;-61
2022/05/28 01:13:13;;;;;;;2.50;0.80;;;12.20;99.90;;;;;;5052703;28;20166;-60
2022/05/28 01:15:46;;;;;;;1.53;0.77;;;12.30;99.90;;;;;;5052624;28;20179;-60
2022/05/28 01:18:19;;;;;;;1.67;1.00;;;12.30;99.90;;;;;;5052491;28;20174;-61
2022/05/28 01:20:52;;;;;;;2.20;1.10;;;12.20;99.90;;;;;;5052496;28;20175;-61
2022/05/28 01:23:44;;;;;;;2.23;1.10;;;12.20;99.90;;;;;;5052335;28;20284;-61
2022/05/28 01:26:25;;;;;;;2.43;1.00;;;12.20;99.90;;;;;;5052130;28;20183;-61
2022/05/28 01:28:58;;;;;;;2.07;0.97;;;12.20;99.90;;;;;;5052112;28;20616;-61
2022/05/28 01:31:27;;;;;;;3.30;1.03;;;12.20;99.90;;;;;;5052319;28;20171;-61
2022/05/28 01:33:55;;;;;;;1.77;0.73;;;12.30;99.90;;;;;;5052043;28;20665;-61
2022/05/28 01:36:22;;;;;;;4.10;0.80;;;12.30;99.90;;;;;;5052432;28;20684;-61
2022/05/28 01:38:49;;;;;;;2.07;0.80;;;12.30;99.90;;;;;;5052220;28;20184;-60
2022/05/28 01:41:15;;;;;;;4.10;1.00;;;12.30;99.90;;;;;;5052032;28;20202;-61
2022/05/28 01:43:44;;;;;;;0.73;0.60;;;12.30;99.90;;;;;;5052185;28;20189;-61
2022/05/28 01:46:12;;;;;;;2.17;1.00;;;12.30;99.90;;;;;;5052220;28;20177;-60
2022/05/28 01:48:40;;;;;;;1.47;0.73;;;12.40;99.90;;;;;;5051829;28;20680;-60
2022/05/28 01:51:07;;;;;;;4.23;0.80;;;12.30;99.90;;;;;;5052144;28;20317;-61
2022/05/28 01:56:21;;;;;;;5.53;1.00;;;12.30;99.90;;;;;;5051534;28;20193;-60
2022/05/28 01:58:47;;;;;;;4.50;1.13;;;12.30;99.90;;;;;;5051657;28;20705;-60
2022/05/28 02:01:13;;;;;;;2.23;1.10;;;12.30;99.90;;;;;;5051833;28;20187;-61
2022/05/28 02:03:44;;;;;;;2.00;1.23;;;12.30;99.90;;;;;;5051524;28;20329;-60
2022/05/28 02:06:09;;;;;;;3.20;1.10;;;12.30;99.90;;;;;;5051850;28;20192;-60
2022/05/28 02:08:39;;;;;;;1.90;1.17;;;12.20;99.90;;;;;;5051230;28;20665;-61
2022/05/28 02:11:42;;;;;;;3.07;1.23;;;12.20;99.90;;;;;;5051501;28;20657;-61
2022/05/28 02:14:18;;;;;;;2.27;1.13;;;12.20;99.90;;;;;;5044829;28;20547;-61
2022/05/28 02:16:58;;;;;;;2.37;1.00;;;12.30;99.90;;;;;;5051682;28;20720;-60
2022/05/28 02:19:33;;;;;;;2.77;1.30;;;12.20;99.90;;;;;;5054971;28;20174;-60
2022/05/28 02:22:06;;;;;;;4.23;1.00;;;12.20;99.90;;;;;;5055962;28;20216;-60
2022/05/28 02:24:50;;;;;;;7.43;1.67;;;12.30;99.90;;;;;;5055829;28;20546;-61
2022/05/28 02:27:19;;;;;;;2.07;1.13;;;12.30;99.90;;;;;;5055217;28;20210;-60
2022/05/28 02:29:45;;;;;;;1.80;1.03;;;12.20;99.90;;;;;;5055749;28;20368;-60
2022/05/28 02:32:17;;;;;;;2.53;0.90;;;12.10;99.90;;;;;;5055600;28;20697;-60
2022/05/28 02:34:46;;;;;;;2.00;1.13;;;12.10;99.90;;;;;;5055171;28;20662;-60
2022/05/28 02:37:14;;;;;;;2.97;1.37;;;12.20;99.90;;;;;;5055248;28;20266;-60
2022/05/28 02:39:39;;;;;;;2.33;1.00;;;12.20;99.90;;;;;;5055408;28;20586;-60
2022/05/28 02:42:05;;;;;;;2.97;1.30;;;12.20;99.90;;;;;;5054848;28;20186;-61
2022/05/28 02:44:31;;;;;;;2.13;1.17;;;12.20;99.90;;;;;;5055509;28;20221;-60
2022/05/28 02:46:57;;;;;;;3.57;1.30;;;12.20;99.90;;;;;;5055079;28;20289;-60
2022/05/28 02:49:23;;;;;;;2.63;1.20;;;12.20;99.90;;;;;;5055372;28;20270;-61
2022/05/28 02:51:49;;;;;;;1.67;1.10;;;12.20;99.90;;;;;;5055158;28;20214;-61
2022/05/28 02:54:15;;;;;;;4.07;1.20;;;12.30;99.90;;;;;;5055159;28;20180;-61
2022/05/28 02:56:41;;;;;;;2.30;1.40;;;12.30;99.90;;;;;;5054574;28;20189;-60
2022/05/28 02:59:06;;;;;;;2.07;1.27;;;12.40;99.90;;;;;;5055074;28;20541;-61
2022/05/28 03:01:33;;;;;;;2.53;1.07;;;12.40;99.90;;;;;;5054006;28;20715;-60
2022/05/28 03:04:00;;;;;;;4.77;1.30;;;12.30;99.90;;;;;;5054910;28;20630;-60
2022/05/28 03:06:26;;;;;;;4.60;1.10;;;12.40;99.90;;;;;;5055073;28;20498;-60
2022/05/28 03:08:52;;;;;;;13.50;2.73;;;12.40;99.90;;;;;;5054493;28;20535;-60
2022/05/28 03:11:18;;;;;;;5.77;1.40;;;12.50;99.90;;;;;;5054485;28;20196;-60
2022/05/28 03:13:44;;;;;;;2.07;1.20;;;12.60;99.90;;;;;;5054603;28;20259;-60
2022/05/28 03:16:10;;;;;;;7.97;1.53;;;12.60;99.90;;;;;;5054759;28;20242;-61
2022/05/28 03:18:36;;;;;;;5.97;1.43;;;12.60;99.90;;;;;;5054056;28;20521;-60
2022/05/28 03:21:03;;;;;;;4.30;1.33;;;12.70;99.90;;;;;;5054887;28;20189;-60
2022/05/28 03:23:29;;;;;;;2.37;1.20;;;12.70;99.90;;;;;;5054484;28;20281;-60
2022/05/28 03:25:55;;;;;;;2.17;1.37;;;12.70;99.90;;;;;;5053843;28;20202;-62
2022/05/28 03:28:21;;;;;;;4.17;1.27;;;12.70;99.90;;;;;;5048312;28;20271;-60
2022/05/28 03:30:46;;;;;;;2.50;1.20;;;12.70;99.90;;;;;;5046824;28;20666;-61
2022/05/28 03:33:12;;;;;;;3.37;1.27;;;12.80;99.90;;;;;;5046162;28;20197;-61
2022/05/28 03:35:40;;;;;;;2.40;1.10;;;12.90;99.90;;;;;;5054170;28;20626;-60
2022/05/28 03:38:06;;;;;;;6.70;1.57;;;12.90;99.90;;;;;;5045705;28;20198;-60
2022/05/28 03:40:33;;;;;;;4.27;1.40;;;12.90;99.90;;;;;;5033861;28;20209;-59
2022/05/28 03:42:59;;;;;;;4.63;1.33;;;12.90;99.90;;;;;;5034015;28;20638;-60
2022/05/28 03:45:26;;;;;;;4.83;1.47;;;13.00;99.90;;;;;;5034270;28;20190;-60
2022/05/28 03:47:52;;;;;;;5.47;1.67;;;13.00;99.90;;;;;;5034160;28;20203;-60
2022/05/28 03:50:18;;;;;;;7.23;1.47;;;13.10;99.90;;;;;;5033943;28;20498;-61
2022/05/28 03:52:43;;;;;;;7.53;1.77;;;13.10;99.90;;;;;;5034039;28;20189;-61
2022/05/28 03:55:09;;;;;;;3.83;1.97;;;13.10;99.90;;;;;;5033854;28;20242;-61
2022/05/28 03:57:35;;;;;;;11.80;5.20;;;13.10;99.90;;;;;;5053044;28;20213;-60
2022/05/28 04:00:03;;;;;;;4.93;1.63;;;13.20;99.90;;;;;;5053735;28;20212;-59
2022/05/28 04:02:29;;;;;;;8.67;1.67;;;13.20;99.90;;;;;;5053890;28;20261;-60
2022/05/28 04:04:55;;;;;;;5.50;2.20;;;13.30;99.90;;;;;;5053672;28;20277;-59
2022/05/28 04:07:21;;;;;;;12.73;2.37;;;13.40;99.90;;;;;;5053222;28;20277;-60
2022/05/28 04:09:47;;;;;;;3.20;1.80;;;13.60;99.90;;;;;;5053503;28;20248;-60
2022/05/28 04:12:13;;;;;;;6.30;2.50;;;13.80;99.90;;;;;;5053196;28;20179;-60
2022/05/28 04:14:39;;;;;;;5.97;1.30;;;14.00;99.90;;;;;;5052947;28;20211;-61
2022/05/28 04:17:05;;;;;;;9.37;2.23;;;14.00;99.90;;;;;;5052187;28;20218;-60
2022/05/28 04:19:31;;;;;;;7.60;2.00;;;14.00;99.90;;;;;;5052778;28;20583;-60
2022/05/28 04:21:57;;;;;;;2.93;1.53;;;13.90;99.90;;;;;;5053176;28;20318;-60
2022/05/28 04:24:23;;;;;;;6.67;1.53;;;14.00;99.90;;;;;;5051285;28;20226;-61
2022/05/28 04:26:49;;;;;;;3.07;1.73;;;14.10;99.90;;;;;;5050705;28;20213;-60
2022/05/28 04:29:15;;;;;;;22.47;6.20;;;13.80;99.90;;;;;;5052543;28;20537;-60
2022/05/28 04:31:42;;;;;;;3.57;1.30;;;13.70;99.90;;;;;;5052595;28;20183;-60
2022/05/28 04:34:08;;;;;;;9.90;2.30;;;13.70;99.90;;;;;;5052771;28;20182;-60
2022/05/28 04:36:34;;;;;;;4.70;1.57;;;13.60;99.90;;;;;;5052277;28;20186;-61
2022/05/28 04:39:00;;;;;;;5.53;1.93;;;13.50;99.90;;;;;;5052489;28;20192;-61
2022/05/28 04:41:25;;;;;;;6.63;1.70;;;13.30;99.90;;;;;;5051815;28;20227;-61
2022/05/28 04:43:51;;;;;;;4.13;1.70;;;13.40;99.90;;;;;;5051427;28;20176;-60
2022/05/28 04:46:17;;;;;;;2.70;1.60;;;13.40;99.90;;;;;;5052774;28;20599;-61
2022/05/28 04:48:43;;;;;;;10.73;2.40;;;13.60;99.90;;;;;;5052427;28;20221;-60
2022/05/28 04:51:09;;;;;;;11.90;2.13;;;14.10;99.90;;;;;;5052872;28;20179;-60
2022/05/28 04:53:35;;;;;;;22.80;3.90;;;14.40;99.90;;;;;;5051556;28;20629;-60
2022/05/28 04:56:01;;;;;;;7.13;2.00;;;14.50;99.90;;;;;;5051667;28;20190;-60
2022/05/28 04:58:29;;;;;;;2.50;1.70;;;14.70;99.90;;;;;;5052397;28;20186;-60
2022/05/28 05:00:55;;;;;;;10.03;3.00;;;14.60;99.90;;;;;;5052364;28;20222;-61
2022/05/28 05:03:21;;;;;;;3.73;1.50;;;14.70;99.90;;;;;;5052723;28;20655;-61
2022/05/28 05:05:47;;;;;;;6.43;3.00;;;14.40;99.90;;;;;;5052366;28;20182;-60
2022/05/28 05:08:13;;;;;;;5.20;2.23;;;14.30;99.90;;;;;;5052766;28;20210;-62
2022/05/28 05:10:39;;;;;;;3.40;1.80;;;14.40;99.90;;;;;;5051985;28;20647;-62
2022/05/28 05:13:06;;;;;;;5.47;1.67;;;14.50;99.90;;;;;;5052656;28;20189;-61
2022/05/28 05:15:32;;;;;;;7.10;1.50;;;14.80;99.90;;;;;;5052160;28;20627;-61
2022/05/28 05:17:58;;;;;;;4.23;1.53;;;15.00;99.90;;;;;;5052019;28;20699;-60
2022/05/28 05:20:24;;;;;;;6.07;1.90;;;15.20;99.90;;;;;;5052015;28;20194;-61
2022/05/28 05:22:53;;;;;;;4.50;1.60;;;15.40;99.90;;;;;;5051854;28;20256;-61
2022/05/28 05:25:18;;;;;;;4.60;1.73;;;15.30;99.90;;;;;;5051817;28;20189;-62
2022/05/28 05:27:44;;;;;;;13.00;2.60;;;15.40;99.90;;;;;;5051908;28;20586;-62
2022/05/28 05:30:12;;;;;;;7.90;1.80;;;15.60;99.90;;;;;;5051397;28;20708;-62
2022/05/28 05:32:37;;;;;;;5.10;1.60;;;15.60;99.90;;;;;;5051826;28;20224;-62
2022/05/28 05:35:03;;;;;;;4.67;1.50;;;15.50;99.90;;;;;;5051831;28;20571;-61
2022/05/28 05:37:30;;;;;;;7.87;2.20;;;15.60;99.90;;;;;;5052160;28;20787;-61
2022/05/28 05:39:56;;;;;;;9.87;2.23;;;15.70;99.90;;;;;;5051096;28;20194;-61
2022/05/28 05:42:22;;;;;;;4.57;1.23;;;15.70;99.90;;;;;;5051807;28;20240;-61
2022/05/28 05:44:48;;;;;;;2.83;1.20;;;15.60;99.90;;;;;;5051909;28;20630;-61
2022/05/28 05:47:13;;;;;;;5.33;1.63;;;15.50;99.90;;;;;;5051466;28;20607;-61
2022/05/28 05:49:39;;;;;;;6.47;2.53;;;15.50;99.90;;;;;;5051815;28;20195;-62
2022/05/28 05:52:05;;;;;;;7.97;3.03;;;15.60;99.90;;;;;;5051240;28;20212;-61
2022/05/28 05:54:31;;;;;;;3.47;1.60;;;15.60;99.90;;;;;;5050215;28;20203;-61
2022/05/28 05:56:57;;;;;;;7.40;1.63;;;15.60;99.90;;;;;;5051275;28;20641;-63
2022/05/28 05:59:23;;;;;;;17.80;2.00;;;15.30;99.90;;;;;;5051609;28;20227;-62
2022/05/28 06:01:49;;;;;;;4.33;1.90;;;15.20;99.90;;;;;;5051029;28;20171;-61
2022/05/28 06:04:15;;;;;;;5.40;1.40;;;14.90;99.90;;;;;;5051288;28;20630;-62
2022/05/28 06:06:41;;;;;;;4.53;1.97;;;14.90;99.90;;;;;;5049785;28;20181;-61
2022/05/28 06:09:08;;;;;;;4.13;2.30;;;15.00;99.90;;;;;;5051649;28;20184;-61
2022/05/28 06:11:34;;;;;;;11.03;2.40;;;14.80;99.90;;;;;;5051091;28;20277;-62
2022/05/28 06:14:00;;;;;;;9.63;1.90;;;14.90;99.90;;;;;;5051389;28;20258;-62
2022/05/28 06:16:26;;;;;;;18.60;2.10;;;15.10;99.90;;;;;;5051357;28;20263;-63
2022/05/28 06:18:51;;;;;;;15.17;3.37;;;15.20;99.90;;;;;;5051256;28;20205;-61
2022/05/28 06:21:17;;;;;;;4.17;1.30;;;15.40;99.90;;;;;;5051383;28;20256;-62
2022/05/28 06:23:43;;;;;;;6.60;1.73;;;15.40;99.90;;;;;;5050904;28;20550;-63
2022/05/28 06:26:11;;;;;;;6.90;1.90;;;15.40;99.90;;;;;;5050993;28;20520;-61
2022/05/28 06:28:36;;;;;;;10.57;1.93;;;15.40;99.90;;;;;;5051226;28;20624;-62
2022/05/28 06:31:08;;;;;;;4.07;1.43;;;15.40;99.90;;;;;;5051265;28;20236;-62
2022/05/28 06:33:38;;;;;;;7.93;2.63;;;15.30;99.90;;;;;;5049996;28;20608;-62
2022/05/28 06:36:06;;;;;;;6.43;1.77;;;15.30;99.90;;;;;;5049712;28;20244;-61
2022/05/28 06:38:32;;;;;;;3.40;1.70;;;15.00;99.90;;;;;;5051293;28;20183;-61
2022/05/28 06:40:58;;;;;;;6.13;1.80;;;14.70;99.90;;;;;;5050842;28;20180;-63
2022/05/28 06:43:24;;;;;;;10.97;2.10;;;14.50;99.90;;;;;;5050646;28;20178;-61
2022/05/28 06:45:50;;;;;;;7.10;1.53;;;14.30;99.90;;;;;;5049659;28;20179;-62
2022/05/28 06:48:16;;;;;;;4.20;1.20;;;14.30;99.90;;;;;;5051188;28;20215;-62
2022/05/28 06:51:01;;;;;;;4.83;2.17;;;14.40;99.90;;;;;;5050951;28;20183;-63
2022/05/28 06:53:29;;;;;;;5.37;1.80;;;14.40;99.90;;;;;;5050858;28;20198;-63
2022/05/28 06:55:54;;;;;;;5.17;1.67;;;14.40;99.90;;;;;;5049684;28;20187;-63
2022/05/28 06:58:20;;;;;;;4.87;1.33;;;14.20;99.90;;;;;;5048925;28;20557;-63
2022/05/28 07:00:46;;;;;;;3.23;1.10;;;14.20;99.90;;;;;;5049037;28;20175;-64
2022/05/28 07:03:14;;;;;;;3.03;1.40;;;14.20;99.90;;;;;;5047460;28;20183;-63
2022/05/28 07:05:40;;;;;;;4.67;1.87;;;14.40;99.90;;;;;;5052111;28;20174;-60
2022/05/28 07:08:06;;;;;;;9.90;1.57;;;14.80;99.90;;;;;;5051930;28;20202;-58
2022/05/28 07:10:32;;;;;;;4.67;1.60;;;15.20;99.90;;;;;;5054347;28;20190;-59
2022/05/28 07:12:58;;;;;;;6.13;1.43;;;15.50;99.90;;;;;;5054293;28;20186;-60
2022/05/28 07:15:24;;;;;;;4.27;1.20;;;15.80;99.90;;;;;;5054537;28;20218;-61
2022/05/28 07:17:50;;;;;;;7.20;2.30;;;15.80;99.90;;;;;;5054060;28;20209;-57
2022/05/28 07:20:15;;;;;;;2.73;1.53;;;15.90;99.90;;;;;;5054275;28;20193;-62
2022/05/28 07:22:42;;;;;;;9.63;1.70;;;15.80;99.90;;;;;;5052429;28;20384;-61
2022/05/28 07:25:09;;;;;;;3.43;1.40;;;15.70;99.90;;;;;;5053754;28;20182;-60
2022/05/28 07:27:35;;;;;;;10.20;1.70;;;15.60;99.90;;;;;;5053748;28;20224;-60
2022/05/28 07:30:01;;;;;;;8.73;2.43;;;15.40;99.90;;;;;;5053856;28;20238;-60
2022/05/28 07:32:30;;;;;;;5.87;2.23;;;15.50;99.90;;;;;;5054068;28;20235;-60
2022/05/28 07:34:57;;;;;;;6.97;1.67;;;15.50;99.90;;;;;;5053896;28;20197;-60
2022/05/28 07:37:24;;;;;;;3.70;1.77;;;16.00;99.90;;;;;;5052061;28;20185;-60
2022/05/28 07:39:49;;;;;;;4.23;1.40;;;16.50;99.90;;;;;;5051646;28;20247;-65
2022/05/28 07:42:15;;;;;;;5.03;1.67;;;16.70;99.90;;;;;;5049552;28;20197;-61
2022/05/28 07:44:41;;;;;;;5.27;1.43;;;17.20;99.90;;;;;;5053071;28;20191;-61
2022/05/28 07:47:07;;;;;;;4.47;1.40;;;17.50;99.90;;;;;;5061873;28;20577;-60
2022/05/28 07:49:36;;;;;;;3.53;1.50;;;17.90;99.00;;;;;;5064620;28;20251;-61
2022/05/28 07:52:02;;;;;;;2.60;1.40;;;18.40;98.40;;;;;;5069199;28;20585;-61
2022/05/28 07:54:28;;;;;;;8.73;1.83;;;18.70;96.60;;;;;;5063571;28;20201;-62
2022/05/28 07:56:54;;;;;;;3.60;1.50;;;18.80;96.00;;;;;;5055037;28;20201;-62
2022/05/28 07:59:20;;;;;;;8.90;1.73;;;19.30;94.40;;;;;;5067982;28;20609;-62
2022/05/28 08:01:45;;;;;;;3.50;1.60;;;19.50;94.90;;;;;;5072007;28;20322;-60
2022/05/28 08:04:11;;;;;;;4.30;1.55;;;19.70;94.10;;;;;;5055628;28;20228;-59
2022/05/28 08:06:38;;;;;;;4.20;1.80;;;19.60;93.40;;;;;;5053075;28;20194;-61
2022/05/28 08:09:05;;;;;;;7.88;2.20;;;19.80;93.70;;;;;;5056943;28;20661;-60
2022/05/28 08:11:31;;;;;;;3.40;1.70;;;20.10;92.50;;;;;;5052747;28;20186;-60
2022/05/28 08:13:57;;;;;;;5.43;2.05;;;20.20;92.30;;;;;;5052585;28;20186;-59
2022/05/28 08:16:23;;;;;;;6.00;2.03;;;19.20;92.10;;;;;;5049821;28;20261;-60
2022/05/28 08:18:49;;;;;;;7.45;2.13;;;18.90;92.90;;;;;;5056581;28;20315;-58
2022/05/28 08:23:59;;;;;;;8.88;2.00;;;19.10;93.00;;;;;;5072182;28;20290;-59
2022/05/28 08:26:26;;;;;;;8.77;2.43;;;19.00;92.60;;;;;;5057850;28;20186;-59
2022/05/28 08:28:53;;;;;;;4.17;2.53;;;18.80;93.10;;;;;;5071461;28;20580;-61
2022/05/28 08:31:20;;;;;;;5.03;2.10;;;18.60;93.40;;;;;;5072438;28;20331;-62
2022/05/28 08:33:46;;;;;;;5.10;2.10;;;18.50;93.20;;;;;;5071623;28;20185;-60
2022/05/28 08:36:13;;;;;;;4.90;1.80;;;18.30;92.90;;;;;;5059392;28;20241;-61
2022/05/28 08:38:42;;;;;;;6.23;2.20;;;18.20;93.40;;;;;;5071373;28;20273;-61
2022/05/28 08:41:08;;;;;;;5.77;2.90;;;18.30;94.00;;;;;;5058576;28;20190;-57
2022/05/28 08:43:37;;;;;;;4.07;2.00;;;18.60;93.60;;;;;;5064461;28;20497;-60
2022/05/28 08:46:04;;;;;;;9.23;4.43;;;18.70;93.10;;;;;;5052587;28;20186;-60
2022/05/28 08:48:42;;;;;;;8.40;3.05;;;19.10;92.60;;;;;;5055000;28;20291;-64
2022/05/28 08:51:34;;;;;;;12.13;2.75;;;19.90;91.20;;;;;;5053097;28;20719;-67
2022/05/28 08:54:09;;;;;;;3.55;1.80;;;20.50;89.40;;;;;;5051191;28;20182;-65
2022/05/28 08:56:37;;;;;;;5.95;2.33;;;21.00;87.30;;;;;;5048421;28;20199;-64
2022/05/28 08:59:17;;;;;;;5.05;1.67;;;21.30;85.90;;;;;;5051326;28;20217;-64
2022/05/28 09:01:47;;;;;;;7.47;2.28;;;20.40;86.70;;;;;;5051184;28;20222;-61
2022/05/28 09:04:28;;;;;;;11.95;2.40;;;20.10;90.20;;;;;;5051752;28;20201;-62
2022/05/28 09:06:56;;;;;;;5.63;2.55;;;19.60;90.10;;;;;;5051564;28;20685;-61
2022/05/28 09:09:44;;;;;;;7.03;2.83;;;19.90;90.30;;;;;;5049876;28;20646;-61
2022/05/28 09:12:31;;;;;;;4.28;2.38;;;20.10;89.70;;;;;;5029746;28;20552;-64
2022/05/28 09:14:57;;;;;;;3.88;2.05;;;20.10;89.80;;;;;;5029088;28;20274;-65
2022/05/28 09:17:36;;;;;;;4.00;2.58;;;19.70;89.30;;;;;;5029301;28;20187;-61
2022/05/28 09:20:09;;;;;;;6.22;1.98;;;19.70;90.00;;;;;;5030184;28;20260;-61
2022/05/28 09:22:34;;;;;;;6.28;2.50;;;19.90;90.30;;;;;;5030359;28;20705;-61
2022/05/28 09:25:00;;;;;;;6.63;2.28;;;20.10;89.40;;;;;;5030441;28;20167;-63
2022/05/28 09:27:32;;;;;;;8.75;2.88;;;20.00;89.60;;;;;;5048297;28;20217;-60
2022/05/28 09:30:36;;;;;;;11.35;2.38;;;20.30;88.80;;;;;;5049835;28;20181;-62
2022/05/28 09:33:11;;;;;;;13.27;2.83;;;20.30;89.80;;;;;;5026453;28;20194;-61
2022/05/28 09:35:54;;;;;;;5.72;2.20;;;20.30;88.80;;;;;;5010196;28;20198;-63
2022/05/28 09:38:24;;;;;;;6.65;2.03;;;20.10;88.00;;;;;;5040974;28;20197;-62
2022/05/28 09:40:59;;;;;;;6.55;2.38;;;20.40;88.40;;;;;;5049056;28;20676;-61
2022/05/28 09:44:00;;;;;;;10.20;2.25;;;20.30;89.40;;;;;;5050088;28;20173;-62
2022/05/28 09:46:41;;;;;;;5.75;2.28;;;20.60;86.80;;;;;;5035164;28;20201;-60
2022/05/28 09:49:19;;;;;;;7.10;2.58;;;21.40;86.50;;;;;;5051254;28;20200;-61
2022/05/28 09:51:54;;;;;;;10.95;3.88;;;21.30;83.50;;;;;;5051471;28;20178;-61
2022/05/28 09:54:33;;;;;;;8.05;3.00;;;21.40;84.50;;;;;;5050813;28;20182;-61
2022/05/28 09:57:03;;;;;;;4.93;2.65;;;21.70;84.40;;;;;;5050829;28;20182;-60
2022/05/28 09:59:32;;;;;;;10.77;3.08;;;21.80;82.30;;;;;;5051190;28;20238;-61
2022/05/28 10:02:21;;;;;;;10.80;3.30;;;21.80;82.00;;;;;;5050642;28;20179;-61
2022/05/28 10:05:02;;;;;;;5.20;2.22;;;21.80;80.70;;;;;;5051100;28;20261;-60
2022/05/28 10:07:32;;;;;;;5.97;2.20;;;21.40;81.30;;;;;;5049683;28;20229;-61
2022/05/28 10:09:59;;;;;;;8.73;3.05;;;21.20;82.10;;;;;;5052330;28;20205;-60
2022/05/28 10:12:28;;;;;;;7.60;3.08;;;21.60;83.10;;;;;;5070809;28;20642;-60
2022/05/28 10:15:12;;;;;;;7.85;2.50;;;22.00;80.60;;;;;;5070761;28;20185;-61
2022/05/28 10:17:41;;;;;;;8.30;2.60;;;22.10;80.30;;;;;;5070629;28;20181;-61
2022/05/28 10:20:19;;;;;;;13.13;3.58;;;22.20;78.90;;;;;;5070892;28;20178;-61
2022/05/28 10:22:53;;;;;;;10.00;3.20;;;21.90;79.90;;;;;;5070204;28;20237;-61
2022/05/28 10:25:33;;;;;;;6.40;2.72;;;21.90;79.80;;;;;;5070345;28;20546;-62
2022/05/28 10:27:59;;;;;;;10.60;3.72;;;21.40;80.50;;;;;;5050837;28;20257;-61
2022/05/28 10:30:35;;;;;;;14.10;3.60;;;21.30;80.80;;;;;;5050677;28;20281;-61
2022/05/28 10:33:08;;;;;;;14.30;4.43;;;21.30;80.60;;;;;;5050708;28;20228;-61
2022/05/28 10:35:35;;;;;;;5.70;2.67;;;21.20;81.10;;;;;;5050675;28;20594;-60
2022/05/28 10:38:21;;;;;;;10.50;3.50;;;21.10;80.20;;;;;;5050012;28;20181;-62
2022/05/28 10:40:51;;;;;;;10.95;3.50;;;21.30;81.10;;;;;;5053656;28;20163;-62
2022/05/28 10:43:33;;;;;;;7.07;2.80;;;21.40;80.10;;;;;;5053587;28;20579;-64
2022/05/28 10:46:12;;;;;;;12.25;2.95;;;21.30;78.80;;;;;;5053979;28;20164;-61
2022/05/28 10:49:32;;;;;;;6.25;2.55;;;21.60;79.00;;;;;;5054581;28;20202;-61
2022/05/28 10:52:25;;;;;;;6.68;3.17;;;22.30;77.90;;;;;;5011749;28;20187;-61
2022/05/28 10:55:15;;;;;;;12.43;3.22;;;22.80;77.30;;;;;;5054860;28;20308;-60
2022/05/28 10:57:55;;;;;;;5.22;2.50;;;22.60;74.60;;;;;;5053604;28;20293;-60
2022/05/28 11:00:44;;;;;;;7.00;2.33;;;22.70;74.70;;;;;;5054646;28;20177;-60
2022/05/28 11:03:53;;;;;;;11.68;3.85;;;22.70;73.30;;;;;;5052858;28;20194;-61
2022/05/28 11:06:42;;;;;;;4.80;2.72;;;23.10;73.00;;;;;;5053643;28;20695;-60
2022/05/28 11:09:41;;;;;;;8.32;2.83;;;23.10;72.20;;;;;;5053585;28;20188;-60
2022/05/28 11:12:24;;;;;;;8.00;2.72;;;23.10;73.00;;;;;;5021367;28;20510;-60
2022/05/28 11:14:58;;;;;;;8.82;3.17;;;23.70;73.20;;;;;;5035030;28;20163;-61
2022/05/28 11:17:50;;;;;;;14.50;3.13;;;23.40;71.60;;;;;;5034349;28;20171;-60
2022/05/28 11:20:31;;;;;;;7.93;2.42;;;23.00;72.60;;;;;;5033706;28;20182;-60
2022/05/28 11:23:18;;;;;;;4.30;2.40;;;22.80;73.30;;;;;;5033404;28;20237;-63
2022/05/28 11:26:04;;;;;;;13.48;2.70;;;22.30;73.90;;;;;;5037181;28;20180;-60
2022/05/28 11:28:51;;;;;;;9.85;4.65;;;21.50;76.50;;;;;;5052161;28;20198;-60
2022/05/28 11:31:49;;;;;;;9.43;2.70;;;21.30;77.40;;;;;;5053441;28;20619;-61
2022/05/28 11:34:23;;;;;;;5.57;2.47;;;21.40;77.90;;;;;;5052622;28;20198;-61
2022/05/28 11:36:55;;;;;;;5.88;2.80;;;21.10;77.70;;;;;;5053526;28;20261;-61
2022/05/28 11:39:24;;;;;;;6.28;2.60;;;20.80;79.60;;;;;;5053336;28;20174;-61
2022/05/28 11:42:13;;;;;;;8.38;2.60;;;20.70;80.20;;;;;;5053582;28;20175;-61
2022/05/28 11:44:47;;;;;;;8.48;2.80;;;20.70;80.70;;;;;;5033772;28;20213;-60
2022/05/28 11:47:16;;;;;;;10.32;3.05;;;20.70;81.60;;;;;;5053020;28;20209;-61
2022/05/28 11:52:53;;;;;;;8.65;2.90;;;20.90;81.00;;;;;;5053700;28;20173;-61
2022/05/28 11:55:25;;;;;;;9.43;2.22;;;20.80;79.80;;;;;;5052908;28;20169;-61
2022/05/28 11:58:12;;;;;;;16.55;7.70;;;20.70;80.20;;;;;;5053650;28;20179;-62
2022/05/28 12:00:40;;;;;;;16.40;4.72;;;20.50;81.10;;;;;;5052808;28;20587;-60
2022/05/28 12:03:21;;;;;;;10.27;3.38;;;20.50;82.40;;;;;;5052798;28;20193;-61
2022/05/28 12:06:06;;;;;;;5.60;2.17;;;20.50;80.70;;;;;;5052833;28;20537;-61
2022/05/28 12:08:35;;;;;;;9.38;4.32;;;20.30;80.80;;;;;;5052849;28;20288;-62
2022/05/28 12:11:08;;;;;;;12.65;3.35;;;20.30;81.80;;;;;;5065030;28;20200;-61
2022/05/28 12:13:49;;;;;;;5.88;3.58;;;20.10;83.00;;;;;;5073400;28;20243;-61
2022/05/28 12:16:18;;;;;;;5.70;2.65;;;20.00;83.10;;;;;;5072021;28;20162;-60
2022/05/28 12:18:57;;;;;;;8.45;2.67;;;19.90;83.60;;;;;;5073010;28;20240;-60
2022/05/28 12:21:35;;;;;;;7.50;2.60;;;19.90;84.10;;;;;;5073001;28;20162;-60
2022/05/28 12:24:18;;;;;;;10.32;3.20;;;19.90;85.50;;;;;;5072702;28;20693;-61
2022/05/28 12:29:34;;;;;;;15.50;3.08;;;19.70;86.30;;;;;;5052885;28;20179;-60
2022/05/28 12:32:49;;;;;;;9.15;3.08;;;19.90;85.40;;;;;;5052805;28;20228;-61
2022/05/28 12:35:15;;;;;;;8.50;3.03;;;19.80;85.50;;;;;;5050726;28;20659;-61
2022/05/28 12:38:08;;;;;;;10.05;3.88;;;19.80;86.00;;;;;;5052664;28;20189;-61
2022/05/28 12:40:54;;;;;;;5.93;2.10;;;19.60;86.50;;;;;;5053397;28;20638;-60
2022/05/28 12:43:36;;;;;;;8.18;3.13;;;19.70;86.30;;;;;;5032438;28;20627;-61
2022/05/28 12:46:35;;;;;;;8.15;2.88;;;19.40;87.40;;;;;;5031408;28;20605;-61
2022/05/28 12:49:20;;;;;;;5.43;2.28;;;19.20;87.90;;;;;;5032669;28;20206;-62
2022/05/28 12:52:08;;;;;;;7.82;2.38;;;19.20;88.30;;;;;;5032785;28;20286;-60
2022/05/28 12:54:36;;;;;;;12.20;3.65;;;19.10;89.10;;;;;;5029633;28;20195;-61
2022/05/28 12:57:10;;;;;;;13.88;3.38;;;19.10;89.40;;;;;;5046785;28;20197;-60
2022/05/28 12:59:43;;;;;;;15.27;3.83;;;19.10;89.60;;;;;;5052349;28;20243;-61
2022/05/28 13:02:32;;;;;;;12.77;3.90;;;19.20;88.60;;;;;;5051570;28;20171;-61
2022/05/28 13:05:12;;;;;;;8.35;2.30;;;19.20;88.50;;;;;;5052641;28;20259;-61
2022/05/28 13:07:48;;;;;;;8.95;2.40;;;19.30;87.50;;;;;;5052068;28;20212;-60
2022/05/28 13:10:21;;;;;;;9.07;2.75;;;19.40;87.40;;;;;;5057650;28;20181;-59
2022/05/28 13:12:56;;;;;;;6.05;2.50;;;19.40;87.90;;;;;;5072455;28;20278;-61
2022/05/28 13:15:48;;;;;;;15.18;3.53;;;19.40;87.10;;;;;;5071781;28;20552;-61
2022/05/28 13:18:27;;;;;;;3.92;2.65;;;19.50;89.00;;;;;;5072100;28;20196;-60